Pagina principale
METAR-TAF:

METAR-TAF

Aeroporti :

Buochs, Svizzera

latitudine: 46-58-28N, longitudine: 8-23-49E, altezza: 449 m

Osservazione

Il bollettino è stato emesso 23 minuti fa, alle 20:20 UTC
Vento 3 kt da direzioni variabili con raffiche fino a 15 kt
Temperature 15°C
Umidità 67%
Pressione 1014 hPa
Visibilità 10 km o più
Cielo coperto ad un'altezza di 5000 ft, Cumulo congesto.

METAR: LSZC 252020Z AUTO VRB03G15KT 9999 OVC050TCU 15/09 Q1014

Ora: 22:43 (20:43 UTC)

Previsione

Il bollettino è stato emesso 6 ore e 18 minuti fa, alle 14:25 UTC
Previsione valida dal 25 alle 15 UTC al 25 alle 24 UTC
Vento 6 kt da ovest
Visibilità 10 km o più
Poco nuvoloso ad un'altezza di 1400 ft
Nuvoloso ad un'altezza di 5000 ft
Temporaneamente
dal 25 alle 15 UTC al 25 alle 24 UTC
Visibilità: 4500 m
Poco nuvoloso ad un'altezza di 3000 ft, Cumulo congesto.
rovesci di pioggia

TAF: LSZC 251425Z 2515/2524 27006KT 9999 FEW014 BKN050 TEMPO 2515/2524 4500 SHRA FEW030TCU

Osservazioni e previsioni meteorologiche di più di 4000 aeroporti (messaggi METAR e TAF).

Le stazioni disponibili sono rappresentate dai dischi gialli e rossi sulla carta.

Puntare il mouse per vedere il nome della stazione.

Clicca sopra per visualizzare le osservazioni e previsioni meteorologiche.

Per cambiare la mappa : fare clic sui pulsanti verdi con una croce nera per ingrandire, il pulsante verde con un trattino per diminuire, o sulla freccia verde per le mappe adiacenti.


METAR-TAF: